METAR Data
IDs: Format: Raw Decoded Include TAF

Data at: 1505 UTC 10 Aug 2022

METAR for:EGLL (London/Heathrow Intl, EN, GB)
Text:EGLL 101450Z AUTO 12009KT 090V150 9999 NCD 29/13 Q1024
Temperature: 29.0°C ( 84°F)
Dewpoint: 13.0°C ( 55°F) [RH = 37%]
Pressure (altimeter):30.24 inches Hg (1024.0 mb)
Winds:from the ESE (120 degrees) at 10 MPH (9 knots; 4.6 m/s)
Visibility:6 or more sm (10+ km)
Ceiling:at least 12,000 feet AGL
Clouds:sky clear below 12,000 feet AGL

TAF for:EGLL (London/Heathrow Intl, EN, GB) issued at 1054 UTC 10 Aug 2022
Text:TAF EGLL 101054Z 1012/1118 09008KT CAVOK
Forecast period:1200 UTC 10 August 2022 to 1800 UTC 11 August 2022
Forecast type:FROM: standard forecast or significant change
Winds:from the E (90 degrees) at 9 MPH (8 knots; 4.1 m/s)
Visibility:6 or more sm (10+ km)
Clouds:missing
Weather:NSW (no significant weather)
Text:PROB30 1102/1108 7000
Forecast period:0200 to 0800 UTC 11 August 2022
Forecast type:PROBABLE: 30 percent likelihood of the following during this time
Visibility: 4 sm ( 7 km)
Clouds:missing